createdAt,value
2023-04-27T00:00:18.929Z,10.82
2023-04-27T00:03:05.082Z,11.31
2023-04-27T00:05:51.355Z,12.02
2023-04-27T00:08:37.777Z,12.03
2023-04-27T00:11:23.597Z,12.44
2023-04-27T00:14:09.509Z,12.32
2023-04-27T00:16:55.337Z,12.81
2023-04-27T00:19:41.192Z,12.45
2023-04-27T00:22:27.040Z,11.26
2023-04-27T00:25:12.908Z,9.70
2023-04-27T00:27:58.831Z,8.71
2023-04-27T00:30:44.704Z,8.40
2023-04-27T00:33:30.473Z,8.72
2023-04-27T00:36:16.326Z,8.54
2023-04-27T00:39:02.099Z,8.40
2023-04-27T00:41:50.070Z,8.97
2023-04-27T00:44:36.101Z,8.26
2023-04-27T00:47:22.233Z,7.89
2023-04-27T00:50:08.271Z,7.47
2023-04-27T00:52:54.228Z,7.21
2023-04-27T00:55:39.994Z,7.46
2023-04-27T00:58:26.021Z,7.66
2023-04-27T01:01:12.019Z,7.53
2023-04-27T01:03:58.087Z,7.56
2023-04-27T01:06:44.512Z,7.50
2023-04-27T01:09:30.202Z,6.91
2023-04-27T01:12:16.481Z,7.64
2023-04-27T01:15:02.380Z,7.60
2023-04-27T01:17:48.169Z,6.64
2023-04-27T01:20:34.146Z,7.07
2023-04-27T01:23:19.979Z,7.19
2023-04-27T01:26:05.756Z,7.26
2023-04-27T01:28:51.750Z,6.92
2023-04-27T01:31:37.515Z,6.65
2023-04-27T01:34:23.452Z,7.22
2023-04-27T01:37:09.427Z,7.20
2023-04-27T01:39:55.348Z,7.41
2023-04-27T01:42:41.132Z,6.99
2023-04-27T01:45:26.917Z,7.23
2023-04-27T01:48:12.830Z,6.94
2023-04-27T01:50:58.698Z,7.00
2023-04-27T01:53:44.564Z,7.59
2023-04-27T01:56:30.505Z,7.20
2023-04-27T01:59:16.402Z,7.08
2023-04-27T02:02:02.315Z,7.35
2023-04-27T02:04:48.430Z,6.84
2023-04-27T02:07:34.127Z,7.09
2023-04-27T02:10:20.052Z,7.58
2023-04-27T02:13:05.947Z,8.11
2023-04-27T02:15:51.811Z,8.12
2023-04-27T02:18:37.678Z,8.42
2023-04-27T02:21:23.521Z,9.14
2023-04-27T02:24:09.283Z,9.57
2023-04-27T02:26:55.202Z,9.98
2023-04-27T02:29:41.043Z,10.29
2023-04-27T02:32:27.403Z,10.58
2023-04-27T02:35:13.265Z,10.88
2023-04-27T02:37:59.024Z,11.31
2023-04-27T02:40:44.973Z,11.64
2023-04-27T02:43:30.813Z,11.67
2023-04-27T02:46:16.654Z,11.59
2023-04-27T02:49:02.597Z,11.67
2023-04-27T02:51:48.452Z,11.96
2023-04-27T02:54:34.257Z,10.86
2023-04-27T02:57:19.993Z,9.79
2023-04-27T03:00:05.778Z,10.04
2023-04-27T03:02:51.853Z,10.49
2023-04-27T03:05:38.062Z,10.08
2023-04-27T03:08:23.828Z,8.26
2023-04-27T03:11:09.730Z,8.81
2023-04-27T03:13:55.681Z,9.96
2023-04-27T03:16:41.515Z,10.26
2023-04-27T03:19:27.513Z,8.66
2023-04-27T03:22:13.201Z,8.58
2023-04-27T03:24:59.069Z,8.84
2023-04-27T03:27:44.897Z,9.17
2023-04-27T03:30:30.761Z,8.95
2023-04-27T03:33:16.735Z,8.52
2023-04-27T03:36:02.626Z,7.97
2023-04-27T03:38:48.516Z,8.01
2023-04-27T03:41:34.179Z,8.07
2023-04-27T03:44:20.120Z,8.01
2023-04-27T03:47:06.042Z,8.09
2023-04-27T03:49:51.874Z,7.95
2023-04-27T03:52:37.820Z,7.95
2023-04-27T03:55:23.577Z,7.96
2023-04-27T03:58:09.391Z,7.53
2023-04-27T04:00:55.357Z,7.87
2023-04-27T04:03:41.358Z,8.35
2023-04-27T04:06:27.644Z,8.50
2023-04-27T04:09:13.772Z,8.39
2023-04-27T04:12:00.008Z,7.42
2023-04-27T04:14:45.883Z,6.93
2023-04-27T04:17:31.853Z,6.84
2023-04-27T04:20:17.645Z,6.87
2023-04-27T04:23:05.669Z,6.81
2023-04-27T04:25:51.540Z,6.40
2023-04-27T04:28:37.502Z,6.09
2023-04-27T04:31:23.470Z,6.72
2023-04-27T04:34:09.230Z,7.24
2023-04-27T04:36:55.212Z,7.27
2023-04-27T04:39:41.221Z,7.27
2023-04-27T04:42:27.137Z,7.34
2023-04-27T04:45:13.017Z,7.71
2023-04-27T04:47:58.840Z,8.07
2023-04-27T04:50:45.055Z,8.17
2023-04-27T04:53:30.995Z,8.74
2023-04-27T04:56:18.755Z,9.04
2023-04-27T04:59:04.620Z,9.35
2023-04-27T05:01:50.593Z,9.86
2023-04-27T05:04:36.353Z,10.17
2023-04-27T05:07:24.888Z,9.24
2023-04-27T05:10:11.358Z,9.40
2023-04-27T05:13:00.158Z,9.59
2023-04-27T05:15:46.300Z,10.12
2023-04-27T05:18:32.130Z,10.52
2023-04-27T05:21:17.943Z,10.57
2023-04-27T05:24:03.823Z,10.73
2023-04-27T05:26:49.667Z,10.85
2023-04-27T05:29:35.393Z,11.12
2023-04-27T05:32:21.378Z,10.85
2023-04-27T05:35:07.219Z,10.34
2023-04-27T05:37:53.125Z,11.49
2023-04-27T05:40:38.957Z,11.70
2023-04-27T05:43:24.760Z,12.48
2023-04-27T05:46:10.639Z,12.90
2023-04-27T05:48:56.500Z,13.26
2023-04-27T05:51:42.388Z,13.36
2023-04-27T05:54:28.294Z,13.74
2023-04-27T05:57:14.183Z,13.46
2023-04-27T06:00:00.059Z,13.88
2023-04-27T06:02:46.254Z,14.27
2023-04-27T06:05:32.227Z,14.02
2023-04-27T06:08:18.242Z,13.96
2023-04-27T06:11:04.090Z,14.14
2023-04-27T06:13:50.062Z,14.66
2023-04-27T06:16:36.075Z,15.09
2023-04-27T06:19:21.856Z,15.49
2023-04-27T06:22:07.748Z,15.57
2023-04-27T06:24:53.518Z,14.86
2023-04-27T06:27:39.229Z,15.54
2023-04-27T06:30:27.146Z,15.38
2023-04-27T06:33:13.011Z,15.35
2023-04-27T06:35:58.801Z,14.14
2023-04-27T06:38:44.685Z,14.25
2023-04-27T06:41:30.421Z,13.87
2023-04-27T06:44:16.212Z,13.42
2023-04-27T06:47:01.999Z,13.97
2023-04-27T06:49:49.603Z,13.31
2023-04-27T06:52:36.129Z,12.48
2023-04-27T06:55:21.969Z,13.51
2023-04-27T06:58:07.790Z,13.78
2023-04-27T07:00:53.581Z,14.04
2023-04-27T07:03:39.505Z,14.28
2023-04-27T07:06:25.632Z,15.02
2023-04-27T07:09:24.030Z,15.50
2023-04-27T07:12:13.002Z,15.76
2023-04-27T07:14:58.891Z,16.18
2023-04-27T07:17:44.844Z,16.37
2023-04-27T07:20:30.753Z,16.73
2023-04-27T07:23:16.829Z,16.81
2023-04-27T07:26:02.705Z,16.91
2023-04-27T07:28:48.649Z,17.13
2023-04-27T07:31:34.643Z,17.36
2023-04-27T07:34:20.389Z,17.41
2023-04-27T07:37:06.258Z,17.29
2023-04-27T07:39:52.161Z,15.77
2023-04-27T07:42:37.993Z,14.77
2023-04-27T07:45:23.888Z,14.62
2023-04-27T07:48:09.767Z,14.38
2023-04-27T07:50:55.754Z,14.21
2023-04-27T07:53:41.733Z,14.02
2023-04-27T07:56:27.623Z,13.56
2023-04-27T07:59:13.607Z,13.49
2023-04-27T08:02:17.683Z,14.09
2023-04-27T08:05:05.323Z,14.53
2023-04-27T08:07:52.152Z,14.07
2023-04-27T08:10:38.431Z,14.48
2023-04-27T08:13:25.491Z,13.97
2023-04-27T08:16:11.777Z,13.93
2023-04-27T08:18:59.265Z,14.24
2023-04-27T08:21:46.395Z,14.47
2023-04-27T08:24:32.214Z,14.50
2023-04-27T08:27:18.053Z,14.14
2023-04-27T08:30:03.897Z,14.05
2023-04-27T08:32:49.922Z,14.56
2023-04-27T08:35:35.869Z,13.99
2023-04-27T08:38:25.588Z,13.97
2023-04-27T08:41:21.300Z,13.90
2023-04-27T08:44:07.965Z,13.51
2023-04-27T08:46:53.931Z,13.66
2023-04-27T08:49:39.762Z,14.00
2023-04-27T08:52:25.688Z,14.30
2023-04-27T08:55:12.451Z,14.05
2023-04-27T08:57:59.946Z,14.79
2023-04-27T09:00:45.806Z,15.14
2023-04-27T09:03:31.820Z,14.61
2023-04-27T09:06:18.095Z,15.46
2023-04-27T09:09:04.292Z,15.25
2023-04-27T09:11:50.546Z,14.95
2023-04-27T09:14:36.346Z,15.65
2023-04-27T09:17:22.324Z,14.98
2023-04-27T09:20:08.174Z,14.81
2023-04-27T09:22:54.053Z,14.62
2023-04-27T09:25:39.856Z,14.82
2023-04-27T09:28:25.609Z,13.45
2023-04-27T09:31:11.460Z,14.16
2023-04-27T09:33:57.422Z,13.97
2023-04-27T09:36:43.193Z,15.31
2023-04-27T09:39:29.138Z,15.04
2023-04-27T09:42:14.959Z,14.71
2023-04-27T09:45:00.789Z,15.30
2023-04-27T09:47:46.686Z,14.99
2023-04-27T09:50:32.588Z,15.25
2023-04-27T09:53:18.421Z,15.51
2023-04-27T09:56:04.315Z,16.42
2023-04-27T09:58:50.173Z,15.96
2023-04-27T10:01:37.414Z,15.83
2023-04-27T10:04:23.756Z,15.32
2023-04-27T10:07:10.021Z,15.41
2023-04-27T10:09:55.985Z,15.21
2023-04-27T10:12:41.740Z,15.48
2023-04-27T10:15:27.635Z,15.41
2023-04-27T10:18:13.445Z,15.45
2023-04-27T10:20:59.360Z,15.05
2023-04-27T10:23:45.211Z,15.49
2023-04-27T10:26:31.817Z,15.41
2023-04-27T10:29:18.369Z,15.36
2023-04-27T10:32:04.435Z,14.94
2023-04-27T10:34:50.337Z,14.99
2023-04-27T10:37:36.269Z,15.12
2023-04-27T10:40:22.346Z,15.25
2023-04-27T10:43:08.076Z,15.25
2023-04-27T10:45:53.988Z,16.11
2023-04-27T10:48:39.958Z,17.14
2023-04-27T10:51:25.706Z,17.93
2023-04-27T10:54:11.637Z,17.60
2023-04-27T10:56:57.489Z,16.77
2023-04-27T10:59:43.369Z,16.14
2023-04-27T11:02:29.462Z,16.58
2023-04-27T11:05:15.753Z,17.11
2023-04-27T11:08:01.873Z,15.93
2023-04-27T11:10:47.747Z,17.20
2023-04-27T11:13:33.670Z,16.72
2023-04-27T11:16:19.715Z,16.64
2023-04-27T11:19:05.649Z,17.46
2023-04-27T11:21:51.569Z,17.78
2023-04-27T11:24:37.441Z,18.84
2023-04-27T11:27:23.349Z,18.97
2023-04-27T11:30:09.154Z,19.53
2023-04-27T11:32:55.073Z,16.90
2023-04-27T11:35:40.976Z,18.13
2023-04-27T11:38:26.941Z,18.65
2023-04-27T11:41:12.747Z,19.24
2023-04-27T11:43:58.813Z,18.16
2023-04-27T11:46:44.869Z,16.85
2023-04-27T11:49:30.855Z,17.54
2023-04-27T11:52:16.610Z,18.07
2023-04-27T11:55:02.426Z,17.11
2023-04-27T11:57:48.439Z,17.33
2023-04-27T12:00:34.287Z,18.38
2023-04-27T12:03:20.223Z,18.30
2023-04-27T12:06:27.575Z,19.25
2023-04-27T12:09:12.586Z,18.07
2023-04-27T12:11:58.456Z,17.36
2023-04-27T12:14:44.470Z,18.73
2023-04-27T12:17:30.500Z,19.65
2023-04-27T12:20:16.278Z,17.81
2023-04-27T12:23:02.117Z,17.91
2023-04-27T12:25:48.122Z,19.07
2023-04-27T12:28:33.940Z,19.59
2023-04-27T12:31:19.908Z,19.60
2023-04-27T12:34:05.733Z,20.21
2023-04-27T12:36:51.689Z,19.82
2023-04-27T12:39:37.662Z,20.12
2023-04-27T12:42:23.554Z,20.66
2023-04-27T12:45:09.559Z,20.93
2023-04-27T12:48:03.284Z,20.27
2023-04-27T12:50:49.892Z,20.32
2023-04-27T12:53:35.746Z,20.77
2023-04-27T12:56:21.583Z,21.17
2023-04-27T12:59:07.629Z,21.53
2023-04-27T13:01:53.685Z,21.89
2023-04-27T13:04:39.693Z,22.08
2023-04-27T13:07:25.417Z,21.71
2023-04-27T13:10:11.431Z,21.27
2023-04-27T13:12:57.410Z,21.31
2023-04-27T13:15:43.359Z,21.08
2023-04-27T13:18:29.506Z,21.60
2023-04-27T13:21:15.320Z,21.71
2023-04-27T13:24:01.204Z,21.92
2023-04-27T13:26:47.247Z,21.49
2023-04-27T13:29:33.147Z,20.68
2023-04-27T13:32:19.148Z,21.38
2023-04-27T13:35:05.031Z,21.43
2023-04-27T13:37:50.854Z,21.18
2023-04-27T13:40:36.881Z,21.55
2023-04-27T13:43:22.883Z,20.86
2023-04-27T13:46:08.845Z,19.90
2023-04-27T13:48:54.775Z,20.99
2023-04-27T13:51:40.539Z,21.01
2023-04-27T13:54:26.459Z,21.58
2023-04-27T13:57:12.513Z,21.09
2023-04-27T13:59:58.291Z,20.62
2023-04-27T14:02:44.097Z,19.96
2023-04-27T14:05:30.049Z,18.96
2023-04-27T14:08:15.933Z,20.00
2023-04-27T14:11:01.886Z,20.75
2023-04-27T14:13:47.733Z,19.83
2023-04-27T14:16:33.723Z,17.71
2023-04-27T14:19:19.594Z,17.65
2023-04-27T14:22:05.404Z,19.13
2023-04-27T14:24:51.366Z,18.06
2023-04-27T14:27:37.256Z,19.45
2023-04-27T14:30:23.145Z,19.93
2023-04-27T14:33:09.075Z,20.32
2023-04-27T14:35:54.887Z,20.73
2023-04-27T14:38:40.819Z,21.05
2023-04-27T14:41:26.670Z,21.22
2023-04-27T14:44:12.561Z,20.65
2023-04-27T14:46:58.536Z,18.79
2023-04-27T14:49:44.289Z,20.17
2023-04-27T14:52:30.212Z,19.37
2023-04-27T14:55:16.186Z,19.68
2023-04-27T14:58:02.001Z,20.24
2023-04-27T15:00:47.834Z,19.36
2023-04-27T15:03:33.732Z,20.03
2023-04-27T15:06:19.868Z,19.82
2023-04-27T15:09:05.688Z,20.34
2023-04-27T15:11:51.578Z,20.76
2023-04-27T15:14:37.523Z,21.05
2023-04-27T15:17:23.798Z,19.34
2023-04-27T15:20:09.984Z,18.92
2023-04-27T15:22:55.811Z,19.15
2023-04-27T15:25:41.767Z,18.34
2023-04-27T15:28:27.657Z,18.65
2023-04-27T15:31:13.594Z,18.76
2023-04-27T15:33:59.438Z,19.62
2023-04-27T15:36:45.297Z,19.62
2023-04-27T15:39:31.113Z,19.86
2023-04-27T15:42:17.033Z,20.46
2023-04-27T15:45:02.979Z,19.33
2023-04-27T15:47:48.849Z,20.35
2023-04-27T15:50:34.840Z,20.82
2023-04-27T15:53:20.762Z,21.05
2023-04-27T15:56:08.945Z,19.42
2023-04-27T15:58:55.191Z,20.89
2023-04-27T16:01:41.213Z,21.46
2023-04-27T16:04:27.172Z,20.93
2023-04-27T16:07:13.258Z,21.52
2023-04-27T16:09:59.240Z,21.70
2023-04-27T16:12:45.095Z,21.85
2023-04-27T16:15:31.176Z,21.81
2023-04-27T16:18:17.289Z,22.23
2023-04-27T16:21:03.174Z,22.36
2023-04-27T16:23:49.193Z,22.69
2023-04-27T16:26:35.144Z,22.72
2023-04-27T16:29:21.040Z,22.56
2023-04-27T16:32:06.931Z,21.70
2023-04-27T16:34:52.748Z,21.71
2023-04-27T16:37:38.614Z,21.62
2023-04-27T16:40:24.381Z,21.66
2023-04-27T16:43:10.435Z,22.04
2023-04-27T16:45:56.502Z,21.73
2023-04-27T16:48:42.718Z,21.95
2023-04-27T16:51:28.662Z,21.70
2023-04-27T16:54:14.491Z,21.96
2023-04-27T16:57:00.350Z,21.00
2023-04-27T16:59:46.313Z,20.59
2023-04-27T17:02:32.353Z,18.94
2023-04-27T17:05:18.652Z,19.20
2023-04-27T17:08:05.637Z,20.33
2023-04-27T17:10:51.769Z,20.47
2023-04-27T17:13:37.696Z,20.69
2023-04-27T17:16:23.563Z,20.31
2023-04-27T17:19:09.447Z,20.59
2023-04-27T17:21:55.499Z,19.39
2023-04-27T17:24:41.381Z,18.82
2023-04-27T17:27:27.272Z,19.22
2023-04-27T17:30:13.194Z,19.77
2023-04-27T17:32:59.147Z,19.70
2023-04-27T17:35:44.969Z,19.75
2023-04-27T17:38:30.828Z,20.18
2023-04-27T17:41:16.746Z,20.53
2023-04-27T17:44:02.681Z,20.98
2023-04-27T17:46:48.475Z,20.50
2023-04-27T17:49:34.344Z,20.64
2023-04-27T17:52:20.242Z,20.82
2023-04-27T17:55:05.991Z,20.86
2023-04-27T17:57:51.934Z,21.10
2023-04-27T18:00:37.996Z,21.08
2023-04-27T18:03:24.341Z,21.00
2023-04-27T18:06:10.473Z,21.38
2023-04-27T18:08:56.378Z,21.29
2023-04-27T18:11:42.185Z,21.18
2023-04-27T18:14:28.095Z,20.85
2023-04-27T18:17:13.981Z,21.04
2023-04-27T18:20:08.107Z,21.32
2023-04-27T18:22:55.461Z,21.44
2023-04-27T18:25:41.352Z,21.75
2023-04-27T18:28:27.089Z,21.90
2023-04-27T18:31:13.104Z,22.00
2023-04-27T18:33:58.833Z,21.86
2023-04-27T18:36:44.673Z,21.28
2023-04-27T18:39:30.511Z,21.04
2023-04-27T18:42:16.276Z,21.13
2023-04-27T18:45:02.062Z,21.08
2023-04-27T18:47:48.171Z,21.01
2023-04-27T18:50:34.363Z,20.55
2023-04-27T18:53:20.254Z,20.70
2023-04-27T18:56:07.074Z,20.49
2023-04-27T18:58:54.060Z,20.37
2023-04-27T19:01:39.998Z,20.16
2023-04-27T19:04:26.093Z,20.12
2023-04-27T19:07:12.282Z,20.06
2023-04-27T19:09:58.299Z,19.96
2023-04-27T19:12:44.175Z,19.66
2023-04-27T19:15:30.167Z,19.62
2023-04-27T19:18:16.073Z,19.85
2023-04-27T19:21:01.837Z,19.55
2023-04-27T19:23:47.744Z,19.04
2023-04-27T19:26:33.496Z,18.54
2023-04-27T19:29:19.468Z,18.95
2023-04-27T19:32:05.249Z,19.13
2023-04-27T19:34:51.034Z,18.69
2023-04-27T19:37:37.161Z,18.35
2023-04-27T19:40:23.007Z,18.55
2023-04-27T19:43:08.922Z,18.77
2023-04-27T19:45:54.726Z,18.35
2023-04-27T19:48:42.338Z,18.24
2023-04-27T19:51:28.518Z,17.79
2023-04-27T19:54:14.548Z,17.88
2023-04-27T19:57:00.601Z,18.28
2023-04-27T19:59:46.486Z,18.53
2023-04-27T20:02:32.450Z,18.39
2023-04-27T20:05:18.472Z,18.76
2023-04-27T20:08:04.923Z,18.52
2023-04-27T20:10:50.780Z,18.79
2023-04-27T20:13:36.576Z,19.12
2023-04-27T20:16:22.404Z,19.12
2023-04-27T20:19:08.323Z,19.42
2023-04-27T20:21:54.349Z,19.47
2023-04-27T20:24:40.232Z,19.69
2023-04-27T20:27:26.121Z,19.60
2023-04-27T20:30:11.989Z,19.56
2023-04-27T20:32:57.766Z,19.71
2023-04-27T20:35:43.539Z,19.97
2023-04-27T20:38:29.338Z,19.97
2023-04-27T20:41:15.088Z,20.14
2023-04-27T20:44:01.061Z,20.24
2023-04-27T20:46:47.483Z,20.30
2023-04-27T20:49:35.470Z,20.20
2023-04-27T20:52:21.671Z,20.23
2023-04-27T20:55:07.426Z,20.16
2023-04-27T20:57:53.350Z,20.11
2023-04-27T21:00:39.186Z,20.01
2023-04-27T21:03:25.184Z,20.08
2023-04-27T21:06:11.390Z,19.99
2023-04-27T21:08:57.286Z,19.96
2023-04-27T21:11:43.016Z,20.06
2023-04-27T21:14:28.921Z,20.08
2023-04-27T21:17:14.830Z,19.72
2023-04-27T21:20:00.611Z,19.34
2023-04-27T21:22:46.555Z,19.27
2023-04-27T21:25:32.456Z,19.12
2023-04-27T21:28:18.296Z,19.15
2023-04-27T21:31:04.163Z,19.03
2023-04-27T21:33:49.998Z,18.93
2023-04-27T21:36:35.880Z,18.40
2023-04-27T21:39:21.725Z,18.54
2023-04-27T21:42:07.612Z,18.29
2023-04-27T21:44:53.529Z,18.17
2023-04-27T21:47:39.380Z,18.27
2023-04-27T21:50:25.212Z,18.54
2023-04-27T21:53:10.941Z,18.65
2023-04-27T21:55:56.780Z,18.42
2023-04-27T21:58:42.767Z,18.50
2023-04-27T22:01:28.474Z,18.15
2023-04-27T22:04:14.855Z,18.31
2023-04-27T22:07:01.255Z,18.34
2023-04-27T22:09:47.060Z,18.57
2023-04-27T22:12:32.936Z,18.73
2023-04-27T22:15:18.794Z,18.81
2023-04-27T22:18:04.580Z,18.70
2023-04-27T22:20:50.463Z,18.78
2023-04-27T22:23:36.365Z,18.79
2023-04-27T22:26:22.900Z,18.88
2023-04-27T22:29:08.708Z,18.87
2023-04-27T22:31:54.561Z,18.90
2023-04-27T22:34:40.412Z,18.69
2023-04-27T22:37:27.551Z,18.79
2023-04-27T22:40:14.961Z,18.70
2023-04-27T22:43:00.826Z,18.76
2023-04-27T22:45:46.471Z,18.65
2023-04-27T22:48:32.184Z,18.36
2023-04-27T22:51:18.014Z,17.94
2023-04-27T22:54:03.818Z,17.86
2023-04-27T22:56:49.763Z,17.70
2023-04-27T22:59:35.635Z,17.82
2023-04-27T23:02:21.613Z,17.58
2023-04-27T23:05:07.639Z,17.69
2023-04-27T23:07:53.429Z,17.34
2023-04-27T23:10:39.399Z,17.81
2023-04-27T23:13:25.472Z,18.00
2023-04-27T23:16:11.365Z,17.90
2023-04-27T23:18:57.274Z,17.98
2023-04-27T23:21:43.144Z,17.97
2023-04-27T23:24:28.990Z,18.09
2023-04-27T23:27:14.816Z,17.86
2023-04-27T23:30:00.601Z,17.91
2023-04-27T23:32:46.572Z,17.91
2023-04-27T23:35:32.390Z,18.09
2023-04-27T23:38:18.384Z,18.14
2023-04-27T23:41:04.253Z,18.19
2023-04-27T23:43:50.112Z,18.18
2023-04-27T23:46:36.007Z,18.19
2023-04-27T23:49:21.979Z,18.02
2023-04-27T23:52:07.918Z,18.06
2023-04-27T23:54:53.813Z,18.11
2023-04-27T23:57:39.797Z,18.06
